createdAt,value
2018-05-31T00:00:45.191Z,12.43
2018-05-31T00:03:19.450Z,11.90
2018-05-31T00:05:47.656Z,13.00
2018-05-31T00:08:15.828Z,12.60
2018-05-31T00:10:50.012Z,12.50
2018-05-31T00:13:18.187Z,12.30
2018-05-31T00:15:46.361Z,12.00
2018-05-31T00:18:14.580Z,13.07
2018-05-31T00:20:49.554Z,13.00
2018-05-31T00:23:17.748Z,13.20
2018-05-31T00:25:45.970Z,13.40
2018-05-31T00:28:14.817Z,13.48
2018-05-31T00:30:43.002Z,12.13
2018-05-31T00:33:11.206Z,10.85
2018-05-31T00:35:39.680Z,11.80
2018-05-31T00:38:07.919Z,10.80
2018-05-31T00:40:36.154Z,11.50
2018-05-31T00:43:04.336Z,11.10
2018-05-31T00:45:35.890Z,11.20
2018-05-31T00:48:04.062Z,10.60
2018-05-31T00:50:32.264Z,10.00
2018-05-31T00:53:00.434Z,9.73
2018-05-31T00:55:40.471Z,9.20
2018-05-31T00:58:10.116Z,9.63
2018-05-31T01:00:42.148Z,10.30
2018-05-31T01:03:10.312Z,9.20
2018-05-31T01:05:38.465Z,8.60
2018-05-31T01:08:06.658Z,9.77
2018-05-31T01:10:34.830Z,9.48
2018-05-31T01:13:03.854Z,9.87
2018-05-31T01:15:32.040Z,8.80
2018-05-31T01:18:00.255Z,9.13
2018-05-31T01:20:31.860Z,8.97
2018-05-31T01:23:00.050Z,8.83
2018-05-31T01:25:28.242Z,9.10
2018-05-31T01:27:57.796Z,9.83
2018-05-31T01:30:25.974Z,8.77
2018-05-31T01:32:54.172Z,8.40
2018-05-31T01:35:22.346Z,8.37
2018-05-31T01:37:50.518Z,8.57
2018-05-31T01:40:19.304Z,9.20
2018-05-31T01:42:47.470Z,8.93
2018-05-31T01:45:22.877Z,8.37
2018-05-31T01:47:51.063Z,8.80
2018-05-31T01:50:19.224Z,8.63
2018-05-31T01:52:53.475Z,8.50
2018-05-31T01:55:23.994Z,9.40
2018-05-31T01:57:52.179Z,10.20
2018-05-31T02:00:22.740Z,9.03
2018-05-31T02:02:50.947Z,9.40
2018-05-31T02:08:19.241Z,9.90
2018-05-31T02:10:50.165Z,9.67
2018-05-31T02:13:18.426Z,10.17
2018-05-31T02:15:46.788Z,9.73
2018-05-31T02:18:23.057Z,9.90
2018-05-31T02:20:51.371Z,9.50
2018-05-31T02:23:19.818Z,10.17
2018-05-31T02:25:51.121Z,10.33
2018-05-31T02:28:20.992Z,9.90
2018-05-31T02:30:51.147Z,9.47
2018-05-31T02:33:23.568Z,9.70
2018-05-31T02:35:51.842Z,10.05
2018-05-31T02:38:24.919Z,9.80
2018-05-31T02:40:55.798Z,9.60
2018-05-31T02:43:24.102Z,10.23
2018-05-31T02:45:54.186Z,11.37
2018-05-31T02:48:25.052Z,10.10
2018-05-31T02:50:55.423Z,9.83
2018-05-31T02:53:28.018Z,10.07
2018-05-31T02:55:57.956Z,9.10
2018-05-31T02:58:26.365Z,9.80
2018-05-31T03:00:55.656Z,9.17
2018-05-31T03:03:23.958Z,10.47
2018-05-31T03:05:52.316Z,9.20
2018-05-31T03:08:25.009Z,9.83
2018-05-31T03:10:54.066Z,10.83
2018-05-31T03:13:24.091Z,9.25
2018-05-31T03:15:54.133Z,9.00
2018-05-31T03:18:22.416Z,9.77
2018-05-31T03:20:50.698Z,9.20
2018-05-31T03:23:30.499Z,9.80
2018-05-31T03:26:07.503Z,9.68
2018-05-31T03:28:39.525Z,10.23
2018-05-31T03:31:08.526Z,9.68
2018-05-31T03:33:36.812Z,9.82
2018-05-31T03:36:05.745Z,10.20
2018-05-31T03:38:34.011Z,9.70
2018-05-31T03:54:05.017Z,9.67
2018-05-31T03:56:34.042Z,8.30
2018-05-31T03:59:03.083Z,8.73
2018-05-31T04:01:31.405Z,10.33
2018-05-31T04:04:00.414Z,9.17
2018-05-31T04:06:31.859Z,10.65
2018-05-31T04:09:00.215Z,11.37
2018-05-31T04:11:32.141Z,9.13
2018-05-31T04:14:02.240Z,10.03
2018-05-31T04:16:40.687Z,10.83
2018-05-31T04:19:14.001Z,9.73
2018-05-31T04:21:45.412Z,9.73
2018-05-31T04:24:17.643Z,10.50
2018-05-31T04:26:46.689Z,10.77
2018-05-31T04:29:16.813Z,10.50
2018-05-31T04:31:45.068Z,9.55
2018-05-31T04:34:13.381Z,10.35
2018-05-31T04:39:15.320Z,10.17
2018-05-31T04:41:43.607Z,10.18
2018-05-31T04:44:12.611Z,9.53
2018-05-31T04:46:40.909Z,9.68
2018-05-31T04:49:11.807Z,8.85
2018-05-31T04:51:40.113Z,9.30
2018-05-31T04:54:22.953Z,10.07
2018-05-31T04:56:53.007Z,10.73
2018-05-31T04:59:21.263Z,10.00
2018-05-31T05:01:52.278Z,9.15
2018-05-31T05:04:22.451Z,10.30
2018-05-31T05:06:53.456Z,9.80
2018-05-31T05:09:24.411Z,10.27
2018-05-31T05:11:53.425Z,10.20
2018-05-31T05:14:23.473Z,9.57
2018-05-31T05:16:51.767Z,10.50
2018-05-31T05:19:20.828Z,10.80
2018-05-31T05:21:49.857Z,10.97
2018-05-31T05:24:18.153Z,11.63
2018-05-31T05:26:48.065Z,10.47
2018-05-31T05:29:17.111Z,10.17
2018-05-31T05:31:47.097Z,10.80
2018-05-31T05:34:15.396Z,9.93
2018-05-31T05:36:44.452Z,11.40
2018-05-31T05:39:15.351Z,10.23
2018-05-31T05:41:48.339Z,9.40
2018-05-31T05:44:16.630Z,10.50
2018-05-31T05:46:55.411Z,10.37
2018-05-31T05:49:23.811Z,11.20
2018-05-31T05:51:53.779Z,11.40
2018-05-31T05:54:33.751Z,10.75
2018-05-31T05:57:02.137Z,10.87
2018-05-31T05:59:30.818Z,10.67
2018-05-31T06:02:00.825Z,11.50
2018-05-31T06:04:33.004Z,11.98
2018-05-31T06:07:10.813Z,11.80
2018-05-31T06:09:42.218Z,13.40
2018-05-31T06:12:27.898Z,11.82
2018-05-31T06:14:56.182Z,12.07
2018-05-31T06:17:29.136Z,12.37
2018-05-31T06:19:58.196Z,13.20
2018-05-31T06:22:29.698Z,12.10
2018-05-31T06:24:59.652Z,13.10
2018-05-31T06:27:27.948Z,12.20
2018-05-31T06:29:56.310Z,12.80
2018-05-31T06:32:25.261Z,12.40
2018-05-31T06:34:54.322Z,13.50
2018-05-31T06:37:23.265Z,12.90
2018-05-31T06:39:53.334Z,13.80
2018-05-31T06:42:21.664Z,12.77
2018-05-31T06:44:51.724Z,13.50
2018-05-31T06:47:22.619Z,12.23
2018-05-31T06:49:52.716Z,12.00
2018-05-31T06:52:22.731Z,12.57
2018-05-31T06:54:51.806Z,14.18
2018-05-31T06:57:27.964Z,13.00
2018-05-31T06:59:57.012Z,13.40
2018-05-31T07:02:34.282Z,14.10
2018-05-31T07:05:03.288Z,13.20
2018-05-31T07:07:31.554Z,13.43
2018-05-31T07:10:00.138Z,13.37
2018-05-31T07:12:28.821Z,13.40
2018-05-31T07:14:57.853Z,12.73
2018-05-31T07:17:26.271Z,12.97
2018-05-31T07:19:59.364Z,15.13
2018-05-31T07:22:29.484Z,13.80
2018-05-31T07:24:58.522Z,14.23
2018-05-31T07:27:27.584Z,15.07
2018-05-31T07:29:55.890Z,14.07
2018-05-31T07:32:28.883Z,14.05
2018-05-31T07:34:57.187Z,13.40
2018-05-31T07:37:27.173Z,14.93
2018-05-31T07:39:56.232Z,15.23
2018-05-31T07:42:24.488Z,14.63
2018-05-31T07:44:52.791Z,14.60
2018-05-31T07:47:21.788Z,15.78
2018-05-31T07:49:50.112Z,14.95
2018-05-31T07:52:19.105Z,15.20
2018-05-31T07:54:47.416Z,15.50
2018-05-31T07:57:24.153Z,14.57
2018-05-31T07:59:59.622Z,13.80
2018-05-31T08:02:30.483Z,15.40
2018-05-31T08:05:00.572Z,16.27
2018-05-31T08:07:29.566Z,15.03
2018-05-31T08:10:05.353Z,15.90
2018-05-31T08:12:36.264Z,16.23
2018-05-31T08:15:04.549Z,15.67
2018-05-31T08:17:32.982Z,15.73
2018-05-31T08:20:02.914Z,15.73
2018-05-31T08:22:33.013Z,14.23
2018-05-31T08:25:01.277Z,14.23
2018-05-31T08:27:29.571Z,13.40
2018-05-31T08:29:58.658Z,13.95
2018-05-31T08:32:27.507Z,14.87
2018-05-31T08:35:08.528Z,14.68
2018-05-31T08:37:36.892Z,14.17
2018-05-31T08:40:05.180Z,14.10
2018-05-31T08:42:33.508Z,13.57
2018-05-31T08:45:03.520Z,13.95
2018-05-31T08:47:33.399Z,13.18
2018-05-31T08:50:01.689Z,13.57
2018-05-31T08:52:30.679Z,13.38
2018-05-31T08:54:59.005Z,13.50
2018-05-31T08:57:27.337Z,13.85
2018-05-31T08:59:56.383Z,14.68
2018-05-31T09:02:31.031Z,13.33
2018-05-31T09:04:59.312Z,14.27
2018-05-31T09:07:27.620Z,13.43
2018-05-31T09:09:58.191Z,14.43
2018-05-31T09:12:26.530Z,12.90
2018-05-31T09:14:54.839Z,12.93
2018-05-31T09:17:23.181Z,12.50
2018-05-31T09:19:52.929Z,13.63
2018-05-31T09:22:23.024Z,13.50
2018-05-31T09:24:52.311Z,14.07
2018-05-31T09:27:24.209Z,13.23
2018-05-31T09:29:55.087Z,12.50
2018-05-31T09:32:25.813Z,14.00
2018-05-31T09:34:54.149Z,13.60
2018-05-31T09:37:30.427Z,13.37
2018-05-31T09:39:59.415Z,13.57
2018-05-31T09:42:27.743Z,12.90
2018-05-31T09:44:56.845Z,13.40
2018-05-31T09:47:25.910Z,12.20
2018-05-31T09:49:55.004Z,13.33
2018-05-31T09:52:23.305Z,12.57
2018-05-31T09:54:57.546Z,13.10
2018-05-31T09:57:26.712Z,13.67
2018-05-31T09:59:55.007Z,12.80
2018-05-31T10:02:26.128Z,12.03
2018-05-31T10:04:56.090Z,12.13
2018-05-31T10:07:25.135Z,11.70
2018-05-31T10:09:54.075Z,11.27
2018-05-31T10:12:25.256Z,12.70
2018-05-31T10:14:53.569Z,11.77
2018-05-31T10:17:23.508Z,11.46
2018-05-31T10:19:53.456Z,12.64
2018-05-31T10:22:22.359Z,11.67
2018-05-31T10:24:51.389Z,11.17
2018-05-31T10:27:20.088Z,11.47
2018-05-31T10:29:50.030Z,11.30
2018-05-31T10:32:20.022Z,10.97
2018-05-31T10:34:50.228Z,10.77
2018-05-31T10:37:20.291Z,12.30
2018-05-31T10:39:56.190Z,12.10
2018-05-31T10:42:26.185Z,11.40
2018-05-31T10:44:55.247Z,10.83
2018-05-31T10:47:30.154Z,11.10
2018-05-31T10:49:59.807Z,11.10
2018-05-31T10:52:30.607Z,11.80
2018-05-31T10:54:58.930Z,10.45
2018-05-31T11:10:28.911Z,13.40
2018-05-31T11:12:58.895Z,11.00
2018-05-31T11:15:29.869Z,8.77
2018-05-31T11:17:59.842Z,15.15
2018-05-31T11:20:29.963Z,11.67
2018-05-31T11:22:58.985Z,11.57
2018-05-31T11:25:27.368Z,14.27
2018-05-31T11:27:55.750Z,13.60
2018-05-31T11:30:26.336Z,17.83
2018-05-31T11:32:54.622Z,10.80
2018-05-31T11:35:23.808Z,9.57
2018-05-31T11:37:53.873Z,10.52
2018-05-31T11:40:24.790Z,9.90
2018-05-31T11:42:53.122Z,9.77
2018-05-31T11:45:21.422Z,10.17
2018-05-31T11:47:49.800Z,10.43
2018-05-31T11:50:18.128Z,9.90
2018-05-31T11:52:49.265Z,10.13
2018-05-31T11:55:21.338Z,9.73
2018-05-31T11:57:50.487Z,10.40
2018-05-31T12:00:18.767Z,11.00
2018-05-31T12:02:48.710Z,10.13
2018-05-31T12:05:25.629Z,10.33
2018-05-31T12:07:56.320Z,9.60
2018-05-31T12:10:24.638Z,9.37
2018-05-31T12:12:53.480Z,8.90
2018-05-31T12:15:23.564Z,9.50
2018-05-31T12:17:51.839Z,8.73
2018-05-31T12:20:20.932Z,9.03
2018-05-31T12:22:49.566Z,9.75
2018-05-31T12:25:19.607Z,8.45
2018-05-31T12:27:48.955Z,9.38
2018-05-31T12:30:24.914Z,9.10
2018-05-31T12:32:54.940Z,9.63
2018-05-31T12:35:24.861Z,8.47
2018-05-31T12:37:53.914Z,8.60
2018-05-31T12:40:23.991Z,8.43
2018-05-31T12:42:54.014Z,8.17
2018-05-31T12:45:23.914Z,8.60
2018-05-31T12:47:54.838Z,7.67
2018-05-31T12:50:23.219Z,7.27
2018-05-31T12:52:51.489Z,6.90
2018-05-31T12:55:24.560Z,7.40
2018-05-31T12:57:53.579Z,7.10
2018-05-31T13:12:39.831Z,8.10
2018-05-31T13:15:08.128Z,8.23
2018-05-31T13:17:36.435Z,8.93
2018-05-31T13:20:05.402Z,7.73
2018-05-31T13:22:35.525Z,8.97
2018-05-31T13:25:04.526Z,7.90
2018-05-31T13:27:33.565Z,7.47
2018-05-31T13:30:04.922Z,8.63
2018-05-31T13:32:33.929Z,8.07
2018-05-31T13:35:04.043Z,8.30
2018-05-31T13:37:33.059Z,7.57
2018-05-31T13:40:01.838Z,7.33
2018-05-31T13:42:30.605Z,7.83
2018-05-31T13:45:00.749Z,7.90
2018-05-31T13:57:14.084Z,7.60
2018-05-31T13:59:44.028Z,7.50
2018-05-31T14:02:14.890Z,7.87
2018-05-31T14:04:43.404Z,7.70
2018-05-31T14:07:11.734Z,8.00
2018-05-31T14:09:41.837Z,8.47
2018-05-31T14:12:10.198Z,8.10
2018-05-31T14:14:38.687Z,7.18
2018-05-31T14:17:09.608Z,8.02
2018-05-31T14:19:38.014Z,7.78
2018-05-31T14:22:07.006Z,7.87
2018-05-31T14:24:40.176Z,7.87
2018-05-31T14:27:19.063Z,8.13
2018-05-31T14:29:47.434Z,8.57
2018-05-31T14:34:53.982Z,8.67
2018-05-31T14:37:23.395Z,9.40
2018-05-31T14:39:51.564Z,8.30
2018-05-31T14:42:21.926Z,8.60
2018-05-31T14:44:50.081Z,7.40
2018-05-31T14:47:18.261Z,7.93
2018-05-31T14:49:46.422Z,7.57
2018-05-31T14:52:22.728Z,8.32
2018-05-31T14:54:50.892Z,7.97
2018-05-31T14:57:19.081Z,8.30
2018-05-31T14:59:49.132Z,8.03
2018-05-31T15:02:23.625Z,8.60
2018-05-31T15:04:51.789Z,8.60
2018-05-31T15:07:19.980Z,8.17
2018-05-31T15:09:48.142Z,7.73
2018-05-31T15:12:16.306Z,7.90
2018-05-31T15:14:44.756Z,7.73
2018-05-31T15:17:14.544Z,8.02
2018-05-31T15:19:42.747Z,7.53
2018-05-31T15:22:10.892Z,7.75
2018-05-31T15:24:39.049Z,8.20
2018-05-31T15:27:07.211Z,8.13
2018-05-31T15:29:35.465Z,8.38
2018-05-31T15:32:03.645Z,9.20
2018-05-31T15:34:31.790Z,8.67
2018-05-31T15:36:59.993Z,8.50
2018-05-31T15:39:28.175Z,8.70
2018-05-31T15:41:56.332Z,8.57
2018-05-31T15:44:24.494Z,8.87
2018-05-31T15:46:52.660Z,8.77
2018-05-31T15:49:20.821Z,9.67
2018-05-31T15:51:49.016Z,8.67
2018-05-31T15:54:17.978Z,8.88
2018-05-31T15:56:46.144Z,8.83
2018-05-31T15:59:14.324Z,9.07
2018-05-31T16:01:42.481Z,9.77
2018-05-31T16:04:10.701Z,9.77
2018-05-31T16:06:38.868Z,8.50
2018-05-31T16:09:07.033Z,9.60
2018-05-31T16:11:35.222Z,9.40
2018-05-31T16:14:03.401Z,9.10
2018-05-31T16:16:31.572Z,9.37
2018-05-31T16:18:59.736Z,9.57
2018-05-31T16:21:27.890Z,8.97
2018-05-31T16:23:56.105Z,8.67
2018-05-31T16:26:24.292Z,10.43
2018-05-31T16:28:52.514Z,9.00
2018-05-31T16:31:21.441Z,9.90
2018-05-31T16:33:49.622Z,8.93
2018-05-31T16:36:17.893Z,9.00
2018-05-31T16:38:47.101Z,8.40
2018-05-31T16:41:18.952Z,9.05
2018-05-31T16:43:47.120Z,9.32
2018-05-31T16:46:15.741Z,8.03
2018-05-31T16:48:43.895Z,7.43
2018-05-31T16:51:12.084Z,8.88
2018-05-31T16:53:40.735Z,8.33
2018-05-31T16:56:08.997Z,7.50
2018-05-31T16:58:38.155Z,6.83
2018-05-31T17:01:06.327Z,6.90
2018-05-31T17:03:34.500Z,6.83
2018-05-31T17:06:04.317Z,6.63
2018-05-31T17:08:32.476Z,7.63
2018-05-31T17:11:00.679Z,7.40
2018-05-31T17:13:28.857Z,9.17
2018-05-31T17:15:57.055Z,6.40
2018-05-31T17:18:25.260Z,6.90
2018-05-31T17:20:53.449Z,6.40
2018-05-31T17:23:21.608Z,7.03
2018-05-31T17:25:49.808Z,7.68
2018-05-31T17:28:19.800Z,7.20
2018-05-31T17:30:47.982Z,7.57
2018-05-31T17:33:16.156Z,7.93
2018-05-31T17:35:44.345Z,6.60
2018-05-31T17:38:12.516Z,6.60
2018-05-31T17:40:40.679Z,7.07
2018-05-31T17:43:08.881Z,6.27
2018-05-31T17:45:37.054Z,7.73
2018-05-31T17:48:05.787Z,6.97
2018-05-31T17:50:33.951Z,7.53
2018-05-31T17:53:02.119Z,6.40
2018-05-31T17:55:30.271Z,7.60
2018-05-31T17:57:58.416Z,7.50
2018-05-31T18:00:26.593Z,7.70
2018-05-31T18:02:54.742Z,6.95
2018-05-31T18:05:22.940Z,7.43
2018-05-31T18:07:51.174Z,7.40
2018-05-31T18:10:19.355Z,7.43
2018-05-31T18:12:47.531Z,7.68
2018-05-31T18:15:19.164Z,7.70
2018-05-31T18:17:47.366Z,7.40
2018-05-31T18:20:15.514Z,7.20
2018-05-31T18:22:44.535Z,7.10
2018-05-31T18:25:12.692Z,7.80
2018-05-31T18:27:40.874Z,7.53
2018-05-31T18:30:09.060Z,7.40
2018-05-31T18:32:37.231Z,7.20
2018-05-31T18:35:05.391Z,7.03
2018-05-31T18:37:33.569Z,7.43
2018-05-31T18:40:01.774Z,6.77
2018-05-31T18:42:29.986Z,7.00
2018-05-31T18:44:58.277Z,7.97
2018-05-31T18:47:26.456Z,6.50
2018-05-31T18:49:55.501Z,7.53
2018-05-31T18:52:23.665Z,6.70
2018-05-31T18:54:52.163Z,6.83
2018-05-31T18:57:20.336Z,6.70
2018-05-31T18:59:48.494Z,6.37
2018-05-31T19:02:31.009Z,6.90
2018-05-31T19:04:59.215Z,6.53
2018-05-31T19:07:27.367Z,6.37
2018-05-31T19:09:55.547Z,7.40
2018-05-31T19:12:32.609Z,6.90
2018-05-31T19:15:00.754Z,5.97
2018-05-31T19:17:28.942Z,6.67
2018-05-31T19:19:57.109Z,6.47
2018-05-31T19:22:25.284Z,6.47
2018-05-31T19:24:58.980Z,6.47
2018-05-31T19:27:27.157Z,6.30
2018-05-31T19:30:01.173Z,6.87
2018-05-31T19:32:29.518Z,6.90
2018-05-31T19:34:57.655Z,6.43
2018-05-31T19:37:25.854Z,6.67
2018-05-31T19:39:54.242Z,7.07
2018-05-31T19:42:27.888Z,6.73
2018-05-31T19:44:56.090Z,7.03
2018-05-31T19:47:24.256Z,6.90
2018-05-31T19:49:52.454Z,6.70
2018-05-31T19:52:26.092Z,6.80
2018-05-31T19:54:55.430Z,6.93
2018-05-31T19:57:24.321Z,6.30
2018-05-31T19:59:58.103Z,6.63
2018-05-31T20:02:31.981Z,6.47
2018-05-31T20:05:00.164Z,6.73
2018-05-31T20:07:28.417Z,7.10
2018-05-31T20:09:56.565Z,6.93
2018-05-31T20:12:24.711Z,7.20
2018-05-31T20:14:53.237Z,6.53
2018-05-31T20:17:21.423Z,7.35
2018-05-31T20:19:49.617Z,6.85
2018-05-31T20:22:17.809Z,7.17
2018-05-31T20:25:01.832Z,7.40
2018-05-31T20:27:30.012Z,6.87
2018-05-31T20:29:58.205Z,7.10
2018-05-31T20:32:26.462Z,6.93
2018-05-31T20:34:54.586Z,7.37
2018-05-31T20:37:22.778Z,7.50
2018-05-31T20:39:50.974Z,7.10
2018-05-31T20:42:19.137Z,6.80
2018-05-31T20:44:47.342Z,6.90
2018-05-31T20:47:15.507Z,7.03
2018-05-31T20:49:43.718Z,6.80
2018-05-31T20:52:13.971Z,6.30
2018-05-31T20:54:42.277Z,7.20
2018-05-31T20:57:10.448Z,6.53
2018-05-31T20:59:38.617Z,7.10
2018-05-31T21:02:06.829Z,6.80
2018-05-31T21:04:34.968Z,6.97
2018-05-31T21:07:03.185Z,6.50
2018-05-31T21:09:31.358Z,7.07
2018-05-31T21:11:59.574Z,6.95
2018-05-31T21:14:27.736Z,6.90
2018-05-31T21:16:55.916Z,6.47
2018-05-31T21:21:57.853Z,7.53
2018-05-31T21:24:26.035Z,7.32
2018-05-31T21:26:54.200Z,7.37
2018-05-31T21:29:22.397Z,6.93
2018-05-31T21:31:50.528Z,7.67
2018-05-31T21:34:18.714Z,8.27
2018-05-31T21:36:46.920Z,7.43
2018-05-31T21:39:15.115Z,7.90
2018-05-31T21:41:43.296Z,7.67
2018-05-31T21:44:11.493Z,7.47
2018-05-31T21:46:39.657Z,7.30
2018-05-31T21:49:09.014Z,8.32
2018-05-31T21:51:37.186Z,8.17
2018-05-31T21:54:05.389Z,7.17
2018-05-31T21:56:33.559Z,7.03
2018-05-31T21:59:01.756Z,6.83
2018-05-31T22:01:29.936Z,7.70
2018-05-31T22:03:58.130Z,7.97
2018-05-31T22:06:26.336Z,7.40
2018-05-31T22:08:54.492Z,7.57
2018-05-31T22:11:22.668Z,7.60
2018-05-31T22:13:50.850Z,7.55
2018-05-31T22:16:20.674Z,7.00
2018-05-31T22:18:48.839Z,7.63
2018-05-31T22:21:17.009Z,7.95
2018-05-31T22:23:45.195Z,7.53
2018-05-31T22:26:14.192Z,7.07
2018-05-31T22:28:42.362Z,7.70
2018-05-31T22:31:10.528Z,5.80
2018-05-31T22:33:38.702Z,7.20
2018-05-31T22:36:06.886Z,7.00
2018-05-31T22:38:35.060Z,7.30
2018-05-31T22:41:03.222Z,7.03
2018-05-31T22:43:31.383Z,6.93
2018-05-31T22:45:59.625Z,7.57
2018-05-31T22:48:27.920Z,7.23
2018-05-31T22:50:56.107Z,7.10
2018-05-31T22:53:24.278Z,7.17
2018-05-31T22:55:55.383Z,7.12
2018-05-31T22:58:23.571Z,7.57
2018-05-31T23:00:51.760Z,7.82
2018-05-31T23:03:19.954Z,8.07
2018-05-31T23:05:48.135Z,7.80
2018-05-31T23:08:17.178Z,7.80
2018-05-31T23:10:45.331Z,8.23
2018-05-31T23:13:13.487Z,7.60
2018-05-31T23:15:41.645Z,7.53
2018-05-31T23:18:09.824Z,8.57
2018-05-31T23:20:37.975Z,8.33
2018-05-31T23:23:06.136Z,7.20
2018-05-31T23:25:34.323Z,7.85
2018-05-31T23:28:02.520Z,8.43
2018-05-31T23:30:30.704Z,8.13
2018-05-31T23:32:58.906Z,7.20
2018-05-31T23:35:27.273Z,7.67
2018-05-31T23:37:55.432Z,7.77
2018-05-31T23:40:23.637Z,7.70
2018-05-31T23:42:51.785Z,6.35
2018-05-31T23:45:21.028Z,8.30
2018-05-31T23:47:49.180Z,8.10
2018-05-31T23:50:17.395Z,7.93
2018-05-31T23:52:45.561Z,8.07
2018-05-31T23:55:13.757Z,7.80
2018-05-31T23:57:41.919Z,8.13
